sensor_id;sensor_type;location;lat;lon;timestamp;P1;durP1;ratioP1;P2;durP2;ratioP2
49998;SDS011;68071;45.062;7.356;2023-05-10T00:00:31;27.23;;;23.02;;
49998;SDS011;68071;45.062;7.356;2023-05-10T00:03:35;28.42;;;24.42;;
49998;SDS011;68071;45.062;7.356;2023-05-10T00:06:39;29.33;;;24.13;;
49998;SDS011;68071;45.062;7.356;2023-05-10T00:09:43;38.17;;;27.73;;
49998;SDS011;68071;45.062;7.356;2023-05-10T00:12:47;46.67;;;34.83;;
49998;SDS011;68071;45.062;7.356;2023-05-10T00:15:50;48.22;;;34.92;;
49998;SDS011;68071;45.062;7.356;2023-05-10T00:18:54;32.15;;;25.27;;
49998;SDS011;68071;45.062;7.356;2023-05-10T00:21:59;95.03;;;39.15;;
49998;SDS011;68071;45.062;7.356;2023-05-10T00:25:03;26.05;;;21.05;;
49998;SDS011;68071;45.062;7.356;2023-05-10T00:28:07;21.48;;;18.75;;
49998;SDS011;68071;45.062;7.356;2023-05-10T00:31:11;22.90;;;18.52;;
49998;SDS011;68071;45.062;7.356;2023-05-10T00:34:14;41.85;;;31.08;;
49998;SDS011;68071;45.062;7.356;2023-05-10T00:37:19;39.72;;;29.85;;
49998;SDS011;68071;45.062;7.356;2023-05-10T00:40:22;27.17;;;21.52;;
49998;SDS011;68071;45.062;7.356;2023-05-10T00:43:31;35.20;;;24.48;;
49998;SDS011;68071;45.062;7.356;2023-05-10T00:46:35;32.45;;;24.85;;
49998;SDS011;68071;45.062;7.356;2023-05-10T00:49:39;38.65;;;27.65;;
49998;SDS011;68071;45.062;7.356;2023-05-10T00:52:44;44.13;;;32.67;;
49998;SDS011;68071;45.062;7.356;2023-05-10T00:55:48;44.85;;;32.92;;
49998;SDS011;68071;45.062;7.356;2023-05-10T00:58:52;45.15;;;33.03;;
49998;SDS011;68071;45.062;7.356;2023-05-10T01:01:57;43.17;;;29.92;;
49998;SDS011;68071;45.062;7.356;2023-05-10T01:05:02;36.90;;;26.60;;
49998;SDS011;68071;45.062;7.356;2023-05-10T01:08:07;37.13;;;28.08;;
49998;SDS011;68071;45.062;7.356;2023-05-10T01:11:11;41.47;;;30.42;;
49998;SDS011;68071;45.062;7.356;2023-05-10T01:14:16;36.70;;;28.08;;
49998;SDS011;68071;45.062;7.356;2023-05-10T01:17:22;25.85;;;20.73;;
49998;SDS011;68071;45.062;7.356;2023-05-10T01:20:27;20.33;;;17.42;;
49998;SDS011;68071;45.062;7.356;2023-05-10T01:27:23;22.40;;;17.85;;
49998;SDS011;68071;45.062;7.356;2023-05-10T01:34:16;20.38;;;16.25;;
49998;SDS011;68071;45.062;7.356;2023-05-10T01:37:39;23.52;;;19.20;;
49998;SDS011;68071;45.062;7.356;2023-05-10T01:47:43;23.08;;;19.90;;
49998;SDS011;68071;45.062;7.356;2023-05-10T01:50:50;21.30;;;18.15;;
49998;SDS011;68071;45.062;7.356;2023-05-10T01:53:58;16.45;;;14.10;;
49998;SDS011;68071;45.062;7.356;2023-05-10T01:57:05;10.52;;;9.30;;
49998;SDS011;68071;45.062;7.356;2023-05-10T02:00:13;8.30;;;7.30;;
49998;SDS011;68071;45.062;7.356;2023-05-10T02:06:55;6.97;;;5.82;;
49998;SDS011;68071;45.062;7.356;2023-05-10T02:10:01;7.78;;;6.72;;
49998;SDS011;68071;45.062;7.356;2023-05-10T02:13:07;8.20;;;6.20;;
49998;SDS011;68071;45.062;7.356;2023-05-10T02:16:14;4.95;;;4.15;;
49998;SDS011;68071;45.062;7.356;2023-05-10T02:19:19;5.65;;;4.85;;
49998;SDS011;68071;45.062;7.356;2023-05-10T02:22:25;6.72;;;5.85;;
49998;SDS011;68071;45.062;7.356;2023-05-10T02:25:31;6.10;;;5.20;;
49998;SDS011;68071;45.062;7.356;2023-05-10T02:28:36;5.35;;;4.78;;
49998;SDS011;68071;45.062;7.356;2023-05-10T02:31:45;5.53;;;5.03;;
49998;SDS011;68071;45.062;7.356;2023-05-10T02:34:50;5.97;;;4.50;;
49998;SDS011;68071;45.062;7.356;2023-05-10T02:41:01;5.33;;;4.27;;
49998;SDS011;68071;45.062;7.356;2023-05-10T02:44:08;5.38;;;4.40;;
49998;SDS011;68071;45.062;7.356;2023-05-10T02:47:14;5.50;;;5.00;;
49998;SDS011;68071;45.062;7.356;2023-05-10T02:50:18;5.25;;;4.38;;
49998;SDS011;68071;45.062;7.356;2023-05-10T02:53:26;4.43;;;4.03;;
49998;SDS011;68071;45.062;7.356;2023-05-10T02:56:37;3.20;;;2.90;;
49998;SDS011;68071;45.062;7.356;2023-05-10T02:59:49;3.60;;;3.10;;
49998;SDS011;68071;45.062;7.356;2023-05-10T03:02:53;1.70;;;1.20;;
49998;SDS011;68071;45.062;7.356;2023-05-10T03:05:58;1.48;;;0.88;;
49998;SDS011;68071;45.062;7.356;2023-05-10T03:09:02;1.15;;;0.88;;
49998;SDS011;68071;45.062;7.356;2023-05-10T03:12:07;1.63;;;0.90;;
49998;SDS011;68071;45.062;7.356;2023-05-10T03:15:27;1.13;;;0.40;;
49998;SDS011;68071;45.062;7.356;2023-05-10T03:19:00;1.95;;;0.85;;
49998;SDS011;68071;45.062;7.356;2023-05-10T03:22:10;0.88;;;0.60;;
49998;SDS011;68071;45.062;7.356;2023-05-10T03:25:16;2.40;;;0.70;;
49998;SDS011;68071;45.062;7.356;2023-05-10T03:28:24;1.30;;;0.70;;
49998;SDS011;68071;45.062;7.356;2023-05-10T03:31:30;1.83;;;0.70;;
49998;SDS011;68071;45.062;7.356;2023-05-10T03:34:34;1.73;;;0.70;;
49998;SDS011;68071;45.062;7.356;2023-05-10T03:37:46;1.33;;;0.73;;
49998;SDS011;68071;45.062;7.356;2023-05-10T03:40:51;2.83;;;0.70;;
49998;SDS011;68071;45.062;7.356;2023-05-10T03:43:55;1.30;;;0.60;;
49998;SDS011;68071;45.062;7.356;2023-05-10T03:46:59;0.68;;;0.50;;
49998;SDS011;68071;45.062;7.356;2023-05-10T03:50:03;0.88;;;0.60;;
49998;SDS011;68071;45.062;7.356;2023-05-10T03:53:08;2.07;;;0.70;;
49998;SDS011;68071;45.062;7.356;2023-05-10T03:56:12;1.20;;;0.60;;
49998;SDS011;68071;45.062;7.356;2023-05-10T03:59:16;1.75;;;0.70;;
49998;SDS011;68071;45.062;7.356;2023-05-10T04:02:20;1.30;;;0.70;;
49998;SDS011;68071;45.062;7.356;2023-05-10T04:05:23;0.75;;;0.50;;
49998;SDS011;68071;45.062;7.356;2023-05-10T04:08:31;0.88;;;0.60;;
49998;SDS011;68071;45.062;7.356;2023-05-10T04:11:34;1.70;;;0.73;;
49998;SDS011;68071;45.062;7.356;2023-05-10T04:14:38;0.90;;;0.60;;
49998;SDS011;68071;45.062;7.356;2023-05-10T04:17:42;0.88;;;0.60;;
49998;SDS011;68071;45.062;7.356;2023-05-10T04:20:46;1.40;;;0.63;;
49998;SDS011;68071;45.062;7.356;2023-05-10T04:23:50;1.80;;;0.95;;
49998;SDS011;68071;45.062;7.356;2023-05-10T04:26:54;1.50;;;0.90;;
49998;SDS011;68071;45.062;7.356;2023-05-10T04:29:58;2.92;;;1.08;;
49998;SDS011;68071;45.062;7.356;2023-05-10T04:33:01;2.13;;;0.90;;
49998;SDS011;68071;45.062;7.356;2023-05-10T04:36:05;2.22;;;1.00;;
49998;SDS011;68071;45.062;7.356;2023-05-10T04:39:10;1.15;;;0.70;;
49998;SDS011;68071;45.062;7.356;2023-05-10T04:42:14;1.27;;;0.90;;
49998;SDS011;68071;45.062;7.356;2023-05-10T04:45:18;1.50;;;1.20;;
49998;SDS011;68071;45.062;7.356;2023-05-10T04:48:22;1.83;;;1.38;;
49998;SDS011;68071;45.062;7.356;2023-05-10T04:51:26;1.60;;;1.15;;
49998;SDS011;68071;45.062;7.356;2023-05-10T04:54:30;2.10;;;1.70;;
49998;SDS011;68071;45.062;7.356;2023-05-10T04:57:34;2.38;;;1.67;;
49998;SDS011;68071;45.062;7.356;2023-05-10T05:00:38;2.05;;;1.55;;
49998;SDS011;68071;45.062;7.356;2023-05-10T05:03:42;2.92;;;1.30;;
49998;SDS011;68071;45.062;7.356;2023-05-10T05:06:45;1.63;;;0.95;;
49998;SDS011;68071;45.062;7.356;2023-05-10T05:09:49;1.08;;;0.90;;
49998;SDS011;68071;45.062;7.356;2023-05-10T05:12:53;1.85;;;1.42;;
49998;SDS011;68071;45.062;7.356;2023-05-10T05:15:59;2.45;;;1.70;;
49998;SDS011;68071;45.062;7.356;2023-05-10T05:19:04;2.05;;;1.70;;
49998;SDS011;68071;45.062;7.356;2023-05-10T05:22:08;2.42;;;1.95;;
49998;SDS011;68071;45.062;7.356;2023-05-10T05:25:13;3.03;;;1.90;;
49998;SDS011;68071;45.062;7.356;2023-05-10T05:28:17;2.55;;;2.35;;
49998;SDS011;68071;45.062;7.356;2023-05-10T05:31:22;3.80;;;2.17;;
49998;SDS011;68071;45.062;7.356;2023-05-10T05:34:26;2.20;;;2.00;;
49998;SDS011;68071;45.062;7.356;2023-05-10T05:37:30;2.67;;;1.90;;
49998;SDS011;68071;45.062;7.356;2023-05-10T05:40:35;2.50;;;1.70;;
49998;SDS011;68071;45.062;7.356;2023-05-10T05:43:39;2.20;;;1.80;;
49998;SDS011;68071;45.062;7.356;2023-05-10T05:46:43;2.40;;;2.20;;
49998;SDS011;68071;45.062;7.356;2023-05-10T05:49:47;1.95;;;1.75;;
49998;SDS011;68071;45.062;7.356;2023-05-10T05:52:51;3.00;;;2.33;;
49998;SDS011;68071;45.062;7.356;2023-05-10T05:55:55;2.70;;;2.50;;
49998;SDS011;68071;45.062;7.356;2023-05-10T05:59:01;2.60;;;2.40;;
49998;SDS011;68071;45.062;7.356;2023-05-10T06:02:05;2.70;;;2.50;;
49998;SDS011;68071;45.062;7.356;2023-05-10T06:05:09;3.10;;;2.80;;
49998;SDS011;68071;45.062;7.356;2023-05-10T06:08:13;3.50;;;3.20;;
49998;SDS011;68071;45.062;7.356;2023-05-10T06:11:17;4.05;;;3.28;;
49998;SDS011;68071;45.062;7.356;2023-05-10T06:14:21;2.92;;;2.63;;
49998;SDS011;68071;45.062;7.356;2023-05-10T06:17:25;3.55;;;3.25;;
49998;SDS011;68071;45.062;7.356;2023-05-10T06:20:29;3.58;;;3.20;;
49998;SDS011;68071;45.062;7.356;2023-05-10T06:23:34;3.22;;;2.92;;
49998;SDS011;68071;45.062;7.356;2023-05-10T06:26:39;2.85;;;2.63;;
49998;SDS011;68071;45.062;7.356;2023-05-10T06:29:42;3.55;;;2.90;;
49998;SDS011;68071;45.062;7.356;2023-05-10T06:32:46;3.17;;;2.88;;
49998;SDS011;68071;45.062;7.356;2023-05-10T06:35:50;3.72;;;3.20;;
49998;SDS011;68071;45.062;7.356;2023-05-10T06:38:54;3.40;;;2.72;;
49998;SDS011;68071;45.062;7.356;2023-05-10T06:41:59;2.85;;;2.53;;
49998;SDS011;68071;45.062;7.356;2023-05-10T06:45:10;3.28;;;2.90;;
49998;SDS011;68071;45.062;7.356;2023-05-10T06:48:14;3.38;;;3.08;;
49998;SDS011;68071;45.062;7.356;2023-05-10T06:51:18;3.22;;;2.92;;
49998;SDS011;68071;45.062;7.356;2023-05-10T06:54:22;2.50;;;2.30;;
49998;SDS011;68071;45.062;7.356;2023-05-10T06:57:26;2.67;;;2.47;;
49998;SDS011;68071;45.062;7.356;2023-05-10T07:00:30;2.60;;;2.40;;
49998;SDS011;68071;45.062;7.356;2023-05-10T07:03:34;2.50;;;2.30;;
49998;SDS011;68071;45.062;7.356;2023-05-10T07:06:38;2.05;;;1.85;;
49998;SDS011;68071;45.062;7.356;2023-05-10T07:09:42;2.20;;;1.98;;
49998;SDS011;68071;45.062;7.356;2023-05-10T07:12:45;2.20;;;2.00;;
49998;SDS011;68071;45.062;7.356;2023-05-10T07:15:49;1.95;;;1.75;;
49998;SDS011;68071;45.062;7.356;2023-05-10T07:18:53;1.63;;;1.50;;
49998;SDS011;68071;45.062;7.356;2023-05-10T07:21:58;2.40;;;1.90;;
49998;SDS011;68071;45.062;7.356;2023-05-10T07:25:01;2.58;;;1.95;;
49998;SDS011;68071;45.062;7.356;2023-05-10T07:28:06;2.45;;;2.13;;
49998;SDS011;68071;45.062;7.356;2023-05-10T07:31:09;2.47;;;2.05;;
49998;SDS011;68071;45.062;7.356;2023-05-10T07:34:14;3.25;;;2.40;;
49998;SDS011;68071;45.062;7.356;2023-05-10T07:37:18;2.63;;;2.42;;
49998;SDS011;68071;45.062;7.356;2023-05-10T07:40:21;2.45;;;2.17;;
49998;SDS011;68071;45.062;7.356;2023-05-10T07:43:26;3.00;;;2.30;;
49998;SDS011;68071;45.062;7.356;2023-05-10T07:46:30;3.35;;;2.53;;
49998;SDS011;68071;45.062;7.356;2023-05-10T07:49:34;2.95;;;2.55;;
49998;SDS011;68071;45.062;7.356;2023-05-10T07:52:39;3.47;;;2.90;;
49998;SDS011;68071;45.062;7.356;2023-05-10T07:55:42;3.92;;;3.50;;
49998;SDS011;68071;45.062;7.356;2023-05-10T07:58:47;3.13;;;2.83;;
49998;SDS011;68071;45.062;7.356;2023-05-10T08:01:51;4.72;;;3.00;;
49998;SDS011;68071;45.062;7.356;2023-05-10T08:04:55;3.92;;;3.53;;
49998;SDS011;68071;45.062;7.356;2023-05-10T08:07:59;3.65;;;3.30;;
49998;SDS011;68071;45.062;7.356;2023-05-10T08:11:03;3.63;;;3.20;;
49998;SDS011;68071;45.062;7.356;2023-05-10T08:14:07;3.30;;;3.00;;
49998;SDS011;68071;45.062;7.356;2023-05-10T08:17:11;3.63;;;3.33;;
49998;SDS011;68071;45.062;7.356;2023-05-10T08:20:15;3.63;;;3.33;;
49998;SDS011;68071;45.062;7.356;2023-05-10T08:23:22;3.78;;;3.47;;
49998;SDS011;68071;45.062;7.356;2023-05-10T08:26:26;3.63;;;3.33;;
49998;SDS011;68071;45.062;7.356;2023-05-10T08:33:10;4.63;;;3.78;;
49998;SDS011;68071;45.062;7.356;2023-05-10T08:36:14;4.00;;;3.70;;
49998;SDS011;68071;45.062;7.356;2023-05-10T08:39:23;4.10;;;3.60;;
49998;SDS011;68071;45.062;7.356;2023-05-10T08:42:28;4.38;;;3.92;;
49998;SDS011;68071;45.062;7.356;2023-05-10T08:45:42;3.05;;;2.53;;
49998;SDS011;68071;45.062;7.356;2023-05-10T08:48:49;3.33;;;3.03;;
49998;SDS011;68071;45.062;7.356;2023-05-10T08:51:55;3.42;;;3.13;;
49998;SDS011;68071;45.062;7.356;2023-05-10T08:55:01;2.85;;;2.47;;
49998;SDS011;68071;45.062;7.356;2023-05-10T08:58:06;3.07;;;2.73;;
49998;SDS011;68071;45.062;7.356;2023-05-10T09:01:10;3.33;;;2.40;;
49998;SDS011;68071;45.062;7.356;2023-05-10T09:04:16;3.40;;;3.05;;
49998;SDS011;68071;45.062;7.356;2023-05-10T09:07:20;2.58;;;2.25;;
49998;SDS011;68071;45.062;7.356;2023-05-10T09:10:24;2.22;;;1.95;;
49998;SDS011;68071;45.062;7.356;2023-05-10T09:13:30;3.35;;;2.92;;
49998;SDS011;68071;45.062;7.356;2023-05-10T09:19:39;2.53;;;2.33;;
49998;SDS011;68071;45.062;7.356;2023-05-10T09:22:44;2.60;;;2.40;;
49998;SDS011;68071;45.062;7.356;2023-05-10T09:29:39;2.60;;;2.20;;
49998;SDS011;68071;45.062;7.356;2023-05-10T09:32:46;2.38;;;2.10;;
49998;SDS011;68071;45.062;7.356;2023-05-10T09:35:51;2.70;;;2.50;;
49998;SDS011;68071;45.062;7.356;2023-05-10T09:38:56;3.45;;;2.35;;
49998;SDS011;68071;45.062;7.356;2023-05-10T09:42:04;2.90;;;2.63;;
49998;SDS011;68071;45.062;7.356;2023-05-10T09:45:11;2.35;;;2.13;;
49998;SDS011;68071;45.062;7.356;2023-05-10T09:48:15;2.60;;;1.70;;
49998;SDS011;68071;45.062;7.356;2023-05-10T09:51:22;2.97;;;1.92;;
49998;SDS011;68071;45.062;7.356;2023-05-10T09:54:27;3.03;;;1.98;;
49998;SDS011;68071;45.062;7.356;2023-05-10T09:57:32;2.47;;;2.28;;
49998;SDS011;68071;45.062;7.356;2023-05-10T10:00:38;2.92;;;2.63;;
49998;SDS011;68071;45.062;7.356;2023-05-10T10:03:44;2.78;;;2.30;;
49998;SDS011;68071;45.062;7.356;2023-05-10T10:06:58;3.40;;;3.10;;
49998;SDS011;68071;45.062;7.356;2023-05-10T10:10:04;3.83;;;3.53;;
49998;SDS011;68071;45.062;7.356;2023-05-10T10:13:09;4.07;;;3.67;;
49998;SDS011;68071;45.062;7.356;2023-05-10T10:16:13;5.00;;;4.60;;
49998;SDS011;68071;45.062;7.356;2023-05-10T10:19:18;4.93;;;4.47;;
49998;SDS011;68071;45.062;7.356;2023-05-10T10:22:24;4.72;;;4.30;;
49998;SDS011;68071;45.062;7.356;2023-05-10T10:25:28;5.32;;;4.82;;
49998;SDS011;68071;45.062;7.356;2023-05-10T10:28:39;4.90;;;4.50;;
49998;SDS011;68071;45.062;7.356;2023-05-10T10:31:55;5.75;;;5.25;;
49998;SDS011;68071;45.062;7.356;2023-05-10T10:35:08;6.03;;;5.53;;
49998;SDS011;68071;45.062;7.356;2023-05-10T10:38:13;6.43;;;5.82;;
49998;SDS011;68071;45.062;7.356;2023-05-10T10:45:11;7.97;;;7.18;;
49998;SDS011;68071;45.062;7.356;2023-05-10T10:48:21;6.50;;;5.90;;
49998;SDS011;68071;45.062;7.356;2023-05-10T10:51:28;7.00;;;6.20;;
49998;SDS011;68071;45.062;7.356;2023-05-10T10:54:34;7.40;;;6.70;;
49998;SDS011;68071;45.062;7.356;2023-05-10T10:57:46;6.40;;;5.90;;
49998;SDS011;68071;45.062;7.356;2023-05-10T11:04:18;6.25;;;5.75;;
49998;SDS011;68071;45.062;7.356;2023-05-10T11:07:23;7.32;;;6.70;;
49998;SDS011;68071;45.062;7.356;2023-05-10T11:10:28;5.38;;;4.88;;
49998;SDS011;68071;45.062;7.356;2023-05-10T11:16:44;5.63;;;5.13;;
49998;SDS011;68071;45.062;7.356;2023-05-10T11:23:29;6.78;;;5.18;;
49998;SDS011;68071;45.062;7.356;2023-05-10T11:26:51;5.88;;;5.30;;
49998;SDS011;68071;45.062;7.356;2023-05-10T11:29:56;5.95;;;5.43;;
49998;SDS011;68071;45.062;7.356;2023-05-10T11:33:00;6.10;;;5.53;;
49998;SDS011;68071;45.062;7.356;2023-05-10T11:36:03;6.03;;;5.53;;
49998;SDS011;68071;45.062;7.356;2023-05-10T11:39:07;6.10;;;5.50;;
49998;SDS011;68071;45.062;7.356;2023-05-10T11:42:12;6.95;;;5.32;;
49998;SDS011;68071;45.062;7.356;2023-05-10T11:45:16;5.57;;;5.07;;
49998;SDS011;68071;45.062;7.356;2023-05-10T11:48:19;5.93;;;5.43;;
49998;SDS011;68071;45.062;7.356;2023-05-10T11:51:27;6.90;;;6.13;;
49998;SDS011;68071;45.062;7.356;2023-05-10T11:54:31;6.47;;;5.97;;
49998;SDS011;68071;45.062;7.356;2023-05-10T11:57:38;6.55;;;5.93;;
49998;SDS011;68071;45.062;7.356;2023-05-10T12:00:44;6.55;;;5.97;;
49998;SDS011;68071;45.062;7.356;2023-05-10T12:03:50;6.75;;;6.15;;
49998;SDS011;68071;45.062;7.356;2023-05-10T12:06:56;6.38;;;5.88;;
49998;SDS011;68071;45.062;7.356;2023-05-10T12:10:05;6.85;;;6.25;;
49998;SDS011;68071;45.062;7.356;2023-05-10T12:13:13;6.60;;;6.00;;
49998;SDS011;68071;45.062;7.356;2023-05-10T12:16:19;6.00;;;5.50;;
49998;SDS011;68071;45.062;7.356;2023-05-10T12:19:24;7.07;;;6.25;;
49998;SDS011;68071;45.062;7.356;2023-05-10T12:22:28;6.40;;;5.80;;
49998;SDS011;68071;45.062;7.356;2023-05-10T12:25:33;5.50;;;5.10;;
49998;SDS011;68071;45.062;7.356;2023-05-10T12:28:38;5.13;;;4.72;;
49998;SDS011;68071;45.062;7.356;2023-05-10T12:31:55;5.70;;;5.20;;
49998;SDS011;68071;45.062;7.356;2023-05-10T12:35:00;5.28;;;4.88;;
49998;SDS011;68071;45.062;7.356;2023-05-10T12:38:22;5.78;;;5.28;;
49998;SDS011;68071;45.062;7.356;2023-05-10T12:41:29;6.68;;;6.07;;
49998;SDS011;68071;45.062;7.356;2023-05-10T12:44:33;6.90;;;6.22;;
49998;SDS011;68071;45.062;7.356;2023-05-10T12:47:37;6.95;;;6.38;;
49998;SDS011;68071;45.062;7.356;2023-05-10T12:50:42;6.25;;;5.75;;
49998;SDS011;68071;45.062;7.356;2023-05-10T12:53:46;7.00;;;6.40;;
49998;SDS011;68071;45.062;7.356;2023-05-10T12:56:51;6.60;;;6.00;;
49998;SDS011;68071;45.062;7.356;2023-05-10T12:59:55;7.30;;;6.70;;
49998;SDS011;68071;45.062;7.356;2023-05-10T13:02:59;7.10;;;6.40;;
49998;SDS011;68071;45.062;7.356;2023-05-10T13:06:03;6.28;;;5.78;;
49998;SDS011;68071;45.062;7.356;2023-05-10T13:09:07;6.72;;;6.03;;
49998;SDS011;68071;45.062;7.356;2023-05-10T13:12:11;7.53;;;6.47;;
49998;SDS011;68071;45.062;7.356;2023-05-10T13:15:15;7.80;;;7.10;;
49998;SDS011;68071;45.062;7.356;2023-05-10T13:18:19;6.05;;;5.55;;
49998;SDS011;68071;45.062;7.356;2023-05-10T13:21:24;6.13;;;5.60;;
49998;SDS011;68071;45.062;7.356;2023-05-10T13:24:28;6.45;;;5.85;;
49998;SDS011;68071;45.062;7.356;2023-05-10T13:27:33;7.23;;;6.63;;
49998;SDS011;68071;45.062;7.356;2023-05-10T13:30:37;6.75;;;6.15;;
49998;SDS011;68071;45.062;7.356;2023-05-10T13:33:41;6.70;;;6.10;;
49998;SDS011;68071;45.062;7.356;2023-05-10T13:36:45;6.63;;;6.03;;
49998;SDS011;68071;45.062;7.356;2023-05-10T13:39:50;6.03;;;5.53;;
49998;SDS011;68071;45.062;7.356;2023-05-10T13:42:54;6.00;;;5.47;;
49998;SDS011;68071;45.062;7.356;2023-05-10T13:45:58;5.72;;;5.22;;
49998;SDS011;68071;45.062;7.356;2023-05-10T13:49:01;4.93;;;4.22;;
49998;SDS011;68071;45.062;7.356;2023-05-10T13:52:05;5.10;;;4.50;;
49998;SDS011;68071;45.062;7.356;2023-05-10T13:55:10;6.45;;;5.85;;
49998;SDS011;68071;45.062;7.356;2023-05-10T13:58:16;6.13;;;5.53;;
49998;SDS011;68071;45.062;7.356;2023-05-10T14:01:20;6.55;;;5.88;;
49998;SDS011;68071;45.062;7.356;2023-05-10T14:04:24;7.00;;;6.30;;
49998;SDS011;68071;45.062;7.356;2023-05-10T14:07:29;6.70;;;6.10;;
49998;SDS011;68071;45.062;7.356;2023-05-10T14:10:33;8.20;;;7.50;;
49998;SDS011;68071;45.062;7.356;2023-05-10T14:13:37;7.95;;;7.25;;
49998;SDS011;68071;45.062;7.356;2023-05-10T14:16:42;8.68;;;7.88;;
49998;SDS011;68071;45.062;7.356;2023-05-10T14:19:47;8.60;;;7.80;;
49998;SDS011;68071;45.062;7.356;2023-05-10T14:22:51;9.10;;;8.30;;
49998;SDS011;68071;45.062;7.356;2023-05-10T14:25:55;8.32;;;7.57;;
49998;SDS011;68071;45.062;7.356;2023-05-10T14:28:59;8.43;;;7.70;;
49998;SDS011;68071;45.062;7.356;2023-05-10T14:32:03;8.20;;;7.50;;
49998;SDS011;68071;45.062;7.356;2023-05-10T14:35:08;8.00;;;7.30;;
49998;SDS011;68071;45.062;7.356;2023-05-10T14:38:12;8.47;;;7.77;;
49998;SDS011;68071;45.062;7.356;2023-05-10T14:41:17;8.50;;;7.70;;
49998;SDS011;68071;45.062;7.356;2023-05-10T14:44:21;7.90;;;7.20;;
49998;SDS011;68071;45.062;7.356;2023-05-10T14:47:25;8.23;;;7.47;;
49998;SDS011;68071;45.062;7.356;2023-05-10T14:50:29;9.25;;;8.35;;
49998;SDS011;68071;45.062;7.356;2023-05-10T14:53:33;9.50;;;8.60;;
49998;SDS011;68071;45.062;7.356;2023-05-10T14:56:38;9.27;;;8.48;;
49998;SDS011;68071;45.062;7.356;2023-05-10T14:59:42;8.77;;;7.97;;
49998;SDS011;68071;45.062;7.356;2023-05-10T15:02:45;8.32;;;7.53;;
49998;SDS011;68071;45.062;7.356;2023-05-10T15:05:50;8.50;;;7.70;;
49998;SDS011;68071;45.062;7.356;2023-05-10T15:08:55;7.97;;;7.22;;
49998;SDS011;68071;45.062;7.356;2023-05-10T15:11:59;8.00;;;7.20;;
49998;SDS011;68071;45.062;7.356;2023-05-10T15:15:04;8.02;;;7.22;;
49998;SDS011;68071;45.062;7.356;2023-05-10T15:21:13;7.57;;;6.93;;
49998;SDS011;68071;45.062;7.356;2023-05-10T15:24:16;7.40;;;6.72;;
49998;SDS011;68071;45.062;7.356;2023-05-10T15:27:20;7.22;;;6.60;;
49998;SDS011;68071;45.062;7.356;2023-05-10T15:30:24;6.40;;;5.90;;
49998;SDS011;68071;45.062;7.356;2023-05-10T15:33:29;6.93;;;6.25;;
49998;SDS011;68071;45.062;7.356;2023-05-10T15:36:32;6.10;;;5.50;;
49998;SDS011;68071;45.062;7.356;2023-05-10T15:39:37;5.68;;;5.18;;
49998;SDS011;68071;45.062;7.356;2023-05-10T15:42:41;6.32;;;5.72;;
49998;SDS011;68071;45.062;7.356;2023-05-10T15:45:44;5.97;;;5.47;;
49998;SDS011;68071;45.062;7.356;2023-05-10T15:48:48;6.30;;;5.70;;
49998;SDS011;68071;45.062;7.356;2023-05-10T15:51:52;6.68;;;6.07;;
49998;SDS011;68071;45.062;7.356;2023-05-10T15:54:56;6.32;;;5.72;;
49998;SDS011;68071;45.062;7.356;2023-05-10T15:58:00;5.00;;;4.55;;
49998;SDS011;68071;45.062;7.356;2023-05-10T16:01:05;4.70;;;4.30;;
49998;SDS011;68071;45.062;7.356;2023-05-10T16:04:09;5.43;;;4.93;;
49998;SDS011;68071;45.062;7.356;2023-05-10T16:07:13;4.57;;;4.18;;
49998;SDS011;68071;45.062;7.356;2023-05-10T16:10:17;4.75;;;4.28;;
49998;SDS011;68071;45.062;7.356;2023-05-10T16:13:21;6.03;;;4.80;;
49998;SDS011;68071;45.062;7.356;2023-05-10T16:16:26;5.10;;;4.70;;
49998;SDS011;68071;45.062;7.356;2023-05-10T16:19:30;5.35;;;4.55;;
49998;SDS011;68071;45.062;7.356;2023-05-10T16:22:34;4.63;;;4.20;;
49998;SDS011;68071;45.062;7.356;2023-05-10T16:25:38;5.45;;;4.93;;
49998;SDS011;68071;45.062;7.356;2023-05-10T16:28:42;5.70;;;5.20;;
49998;SDS011;68071;45.062;7.356;2023-05-10T16:31:46;6.13;;;5.55;;
49998;SDS011;68071;45.062;7.356;2023-05-10T16:34:50;5.63;;;4.97;;
49998;SDS011;68071;45.062;7.356;2023-05-10T16:37:55;7.13;;;6.13;;
49998;SDS011;68071;45.062;7.356;2023-05-10T16:41:03;7.72;;;7.03;;
49998;SDS011;68071;45.062;7.356;2023-05-10T16:44:07;7.63;;;6.93;;
49998;SDS011;68071;45.062;7.356;2023-05-10T16:47:11;6.95;;;6.35;;
49998;SDS011;68071;45.062;7.356;2023-05-10T16:50:15;6.90;;;6.30;;
49998;SDS011;68071;45.062;7.356;2023-05-10T16:53:20;7.95;;;6.68;;
49998;SDS011;68071;45.062;7.356;2023-05-10T16:56:24;7.28;;;6.57;;
49998;SDS011;68071;45.062;7.356;2023-05-10T16:59:29;7.75;;;7.05;;
49998;SDS011;68071;45.062;7.356;2023-05-10T17:02:33;5.90;;;5.40;;
49998;SDS011;68071;45.062;7.356;2023-05-10T17:05:38;6.78;;;5.97;;
49998;SDS011;68071;45.062;7.356;2023-05-10T17:08:43;6.35;;;5.50;;
49998;SDS011;68071;45.062;7.356;2023-05-10T17:11:48;4.88;;;4.47;;
49998;SDS011;68071;45.062;7.356;2023-05-10T17:14:52;4.90;;;4.50;;
49998;SDS011;68071;45.062;7.356;2023-05-10T17:17:56;4.18;;;3.78;;
49998;SDS011;68071;45.062;7.356;2023-05-10T17:21:00;4.20;;;3.80;;
49998;SDS011;68071;45.062;7.356;2023-05-10T17:24:04;4.00;;;3.63;;
49998;SDS011;68071;45.062;7.356;2023-05-10T17:27:08;3.70;;;3.40;;
49998;SDS011;68071;45.062;7.356;2023-05-10T17:30:13;3.47;;;3.17;;
49998;SDS011;68071;45.062;7.356;2023-05-10T17:33:17;4.05;;;3.70;;
49998;SDS011;68071;45.062;7.356;2023-05-10T17:36:21;5.28;;;3.58;;
49998;SDS011;68071;45.062;7.356;2023-05-10T17:39:26;5.15;;;3.80;;
49998;SDS011;68071;45.062;7.356;2023-05-10T17:42:30;4.13;;;3.70;;
49998;SDS011;68071;45.062;7.356;2023-05-10T17:45:34;4.72;;;4.30;;
49998;SDS011;68071;45.062;7.356;2023-05-10T17:48:39;4.40;;;4.00;;
49998;SDS011;68071;45.062;7.356;2023-05-10T17:51:44;3.50;;;3.20;;
49998;SDS011;68071;45.062;7.356;2023-05-10T17:54:50;3.67;;;3.38;;
49998;SDS011;68071;45.062;7.356;2023-05-10T17:57:56;4.10;;;3.67;;
49998;SDS011;68071;45.062;7.356;2023-05-10T18:01:02;3.90;;;3.60;;
49998;SDS011;68071;45.062;7.356;2023-05-10T18:04:07;4.05;;;3.75;;
49998;SDS011;68071;45.062;7.356;2023-05-10T18:07:11;4.53;;;3.47;;
49998;SDS011;68071;45.062;7.356;2023-05-10T18:13:52;4.97;;;4.07;;
49998;SDS011;68071;45.062;7.356;2023-05-10T18:16:56;3.65;;;3.35;;
49998;SDS011;68071;45.062;7.356;2023-05-10T18:20:01;3.50;;;3.15;;
49998;SDS011;68071;45.062;7.356;2023-05-10T18:23:06;3.13;;;2.83;;
49998;SDS011;68071;45.062;7.356;2023-05-10T18:26:10;3.63;;;2.80;;
49998;SDS011;68071;45.062;7.356;2023-05-10T18:29:16;3.78;;;3.30;;
49998;SDS011;68071;45.062;7.356;2023-05-10T18:36:31;3.42;;;3.13;;
49998;SDS011;68071;45.062;7.356;2023-05-10T18:39:36;3.97;;;3.58;;
49998;SDS011;68071;45.062;7.356;2023-05-10T18:45:45;4.43;;;4.03;;
49998;SDS011;68071;45.062;7.356;2023-05-10T18:48:50;4.20;;;3.90;;
49998;SDS011;68071;45.062;7.356;2023-05-10T18:51:54;4.38;;;3.97;;
49998;SDS011;68071;45.062;7.356;2023-05-10T18:54:58;5.72;;;5.22;;
49998;SDS011;68071;45.062;7.356;2023-05-10T19:03:32;5.75;;;5.25;;
49998;SDS011;68071;45.062;7.356;2023-05-10T19:06:38;4.97;;;4.57;;
49998;SDS011;68071;45.062;7.356;2023-05-10T19:09:44;7.55;;;5.85;;
49998;SDS011;68071;45.062;7.356;2023-05-10T19:12:49;6.43;;;5.82;;
49998;SDS011;68071;45.062;7.356;2023-05-10T19:16:09;5.82;;;5.30;;
49998;SDS011;68071;45.062;7.356;2023-05-10T19:19:14;8.40;;;7.63;;
49998;SDS011;68071;45.062;7.356;2023-05-10T19:22:18;6.05;;;5.55;;
49998;SDS011;68071;45.062;7.356;2023-05-10T19:25:23;6.05;;;5.55;;
49998;SDS011;68071;45.062;7.356;2023-05-10T19:28:31;8.55;;;7.82;;
49998;SDS011;68071;45.062;7.356;2023-05-10T19:35:17;8.02;;;7.32;;
49998;SDS011;68071;45.062;7.356;2023-05-10T19:38:21;8.60;;;7.80;;
49998;SDS011;68071;45.062;7.356;2023-05-10T19:41:26;7.83;;;7.13;;